Time;durP1;ratioP1;P1;durP2;ratioP2;P2;SDS_P1;SDS_P2;PMS_P1;PMS_P2;Temp;Humidity;BMP_temperature;BMP_pressure;BME280_temperature;BME280_humidity;BME280_pressure;Samples;Min_cycle;Max_cycle;Signal;HPM_P1;HPM_P2
2024/03/29 00:00:25;;;;;;;2.35;0.57;;;9.80;76.30;;;;;;5073343;28;20428;-34
2024/03/29 00:02:50;;;;;;;1.13;0.50;;;9.70;76.10;;;;;;5073343;28;20404;-32
2024/03/29 00:05:16;;;;;;;2.22;0.90;;;9.70;79.00;;;;;;5073085;28;20465;-31
2024/03/29 00:07:42;;;;;;;2.45;0.73;;;9.70;78.40;;;;;;5073467;28;20116;-33
2024/03/29 00:10:07;;;;;;;3.65;0.77;;;9.70;78.30;;;;;;5073056;28;20028;-32
2024/03/29 00:12:33;;;;;;;1.27;0.63;;;9.60;77.90;;;;;;5073208;28;20048;-30
2024/03/29 00:14:59;;;;;;;2.42;0.63;;;9.60;77.80;;;;;;5073131;28;20138;-31
2024/03/29 00:17:24;;;;;;;4.18;1.00;;;9.60;77.90;;;;;;5073133;28;20021;-33
2024/03/29 00:19:50;;;;;;;3.80;0.82;;;9.60;77.70;;;;;;5073173;28;20028;-31
2024/03/29 00:22:15;;;;;;;1.75;1.00;;;9.50;77.50;;;;;;5072231;28;20053;-34
2024/03/29 00:24:41;;;;;;;2.50;0.85;;;9.50;77.50;;;;;;5072837;28;20142;-29
2024/03/29 00:27:06;;;;;;;3.00;0.70;;;9.50;77.60;;;;;;5072844;28;20426;-32
2024/03/29 00:29:32;;;;;;;3.30;0.60;;;9.40;77.40;;;;;;5072714;28;20055;-31
2024/03/29 00:31:58;;;;;;;2.55;0.60;;;9.40;77.50;;;;;;5072912;28;20024;-36
2024/03/29 00:34:23;;;;;;;3.45;0.90;;;9.40;77.40;;;;;;5072732;28;20075;-30
2024/03/29 00:36:49;;;;;;;3.10;0.80;;;9.40;77.30;;;;;;5072565;28;20133;-28
2024/03/29 00:39:14;;;;;;;1.77;0.70;;;9.40;77.20;;;;;;5072545;28;20017;-33
2024/03/29 00:41:40;;;;;;;3.75;0.90;;;9.50;77.10;;;;;;5072291;28;20028;-37
2024/03/29 00:44:06;;;;;;;2.85;0.63;;;9.50;76.90;;;;;;5072293;28;20067;-34
2024/03/29 00:46:31;;;;;;;1.85;0.80;;;9.50;76.80;;;;;;5072351;28;20059;-31
2024/03/29 00:48:57;;;;;;;3.38;0.90;;;9.50;76.60;;;;;;5071067;28;20092;-32
2024/03/29 00:51:22;;;;;;;1.30;0.65;;;9.50;76.60;;;;;;5072114;28;20480;-33
2024/03/29 00:53:48;;;;;;;4.13;1.13;;;9.60;76.50;;;;;;5072199;28;20131;-32
2024/03/29 00:56:15;;;;;;;1.70;0.57;;;9.50;76.50;;;;;;5072354;28;20025;-30
2024/03/29 00:58:41;;;;;;;2.03;0.73;;;9.60;76.30;;;;;;5072133;28;20064;-32
2024/03/29 01:01:06;;;;;;;1.50;0.60;;;9.60;76.40;;;;;;5071975;28;20055;-31
2024/03/29 01:03:32;;;;;;;2.95;0.65;;;9.60;76.50;;;;;;5070619;28;20561;-30
2024/03/29 01:05:57;;;;;;;3.92;0.93;;;9.70;76.20;;;;;;5072252;28;20020;-32
2024/03/29 01:08:23;;;;;;;3.97;0.85;;;9.70;76.20;;;;;;5072009;28;20032;-30
2024/03/29 01:10:49;;;;;;;1.67;0.60;;;9.70;76.20;;;;;;5071942;28;20016;-29
2024/03/29 01:13:15;;;;;;;1.15;0.50;;;9.70;76.00;;;;;;5072089;28;20040;-31
2024/03/29 01:15:40;;;;;;;1.27;0.43;;;9.70;75.90;;;;;;5072103;28;20025;-29
2024/03/29 01:18:06;;;;;;;1.50;0.70;;;9.70;75.60;;;;;;5071740;28;20471;-32
2024/03/29 01:20:32;;;;;;;1.85;0.55;;;9.80;75.60;;;;;;5070418;28;20021;-30
2024/03/29 01:22:57;;;;;;;0.85;0.43;;;9.80;75.80;;;;;;5072060;28;20467;-36
2024/03/29 01:25:24;;;;;;;1.17;0.43;;;9.80;76.30;;;;;;5071916;28;20021;-34
2024/03/29 01:27:50;;;;;;;2.80;0.55;;;9.70;76.20;;;;;;5072053;28;20071;-36
2024/03/29 01:30:15;;;;;;;1.92;0.55;;;9.70;75.90;;;;;;5071464;28;20060;-34
2024/03/29 01:32:41;;;;;;;1.00;0.52;;;9.70;75.80;;;;;;5071633;28;20038;-38
2024/03/29 01:35:07;;;;;;;3.00;0.60;;;9.70;76.20;;;;;;5070638;28;20012;-37
2024/03/29 01:37:32;;;;;;;1.58;0.63;;;9.70;76.50;;;;;;5071414;28;20056;-36
2024/03/29 01:39:58;;;;;;;1.83;0.50;;;9.70;76.40;;;;;;5071449;28;20024;-35
2024/03/29 01:42:23;;;;;;;2.60;0.50;;;9.70;76.80;;;;;;5071285;28;20752;-35
2024/03/29 01:44:49;;;;;;;2.38;0.50;;;9.70;76.50;;;;;;5071377;28;20429;-34
2024/03/29 01:47:17;;;;;;;1.15;0.57;;;9.70;76.40;;;;;;5071532;28;20028;-35
2024/03/29 01:49:43;;;;;;;2.97;0.90;;;9.60;76.00;;;;;;5071296;28;20489;-33
2024/03/29 01:52:09;;;;;;;1.20;0.65;;;9.70;76.30;;;;;;5071527;28;20016;-38
2024/03/29 01:54:35;;;;;;;2.53;0.60;;;9.60;76.00;;;;;;5071430;28;20418;-36
2024/03/29 01:57:01;;;;;;;1.95;0.50;;;9.60;77.10;;;;;;5071152;28;20021;-37
2024/03/29 01:59:28;;;;;;;1.92;0.40;;;9.60;77.10;;;;;;5071561;28;20047;-32
2024/03/29 02:01:53;;;;;;;1.50;0.47;;;9.60;77.60;;;;;;5070922;28;20013;-31
2024/03/29 02:04:19;;;;;;;1.75;0.60;;;9.60;77.30;;;;;;5070169;28;20103;-36
2024/03/29 02:06:45;;;;;;;1.10;0.50;;;9.60;77.40;;;;;;5071090;28;20469;-30
2024/03/29 02:09:10;;;;;;;1.80;0.60;;;9.50;77.50;;;;;;5071225;28;20044;-32
2024/03/29 02:11:36;;;;;;;0.95;0.50;;;9.40;77.40;;;;;;5070898;28;20024;-35
2024/03/29 02:14:03;;;;;;;1.92;0.75;;;9.40;78.00;;;;;;5071436;28;20020;-32
2024/03/29 02:16:28;;;;;;;2.22;0.65;;;9.30;77.50;;;;;;5071595;28;20495;-39
2024/03/29 02:18:54;;;;;;;1.27;0.50;;;9.30;77.80;;;;;;5071260;28;20021;-37
2024/03/29 02:21:20;;;;;;;1.52;0.47;;;9.30;78.20;;;;;;5071106;28;20048;-36
2024/03/29 02:23:50;;;;;;;1.90;0.85;;;9.30;78.00;;;;;;5070865;28;20021;-34
2024/03/29 02:26:16;;;;;;;0.70;0.50;;;9.20;77.90;;;;;;5071310;28;20498;-36
2024/03/29 02:28:41;;;;;;;1.30;0.77;;;9.20;77.80;;;;;;5070908;28;20020;-36
2024/03/29 02:31:08;;;;;;;0.85;0.55;;;9.20;77.70;;;;;;5070650;28;20029;-33
2024/03/29 02:33:33;;;;;;;1.67;0.50;;;9.20;77.80;;;;;;5071139;28;20017;-37
2024/03/29 02:35:59;;;;;;;2.13;0.60;;;9.20;77.60;;;;;;5070841;28;20334;-39
2024/03/29 02:38:24;;;;;;;1.80;0.60;;;9.30;77.60;;;;;;5070717;28;20072;-37
2024/03/29 02:40:50;;;;;;;3.17;0.82;;;9.30;79.20;;;;;;5070658;28;20021;-35
2024/03/29 02:43:16;;;;;;;1.80;0.52;;;9.30;78.80;;;;;;5070846;28;20056;-36
2024/03/29 02:45:41;;;;;;;1.38;0.50;;;9.30;78.30;;;;;;5071276;28;20473;-34
2024/03/29 02:48:07;;;;;;;1.58;0.50;;;9.40;78.00;;;;;;5074612;28;20031;-37
2024/03/29 02:50:33;;;;;;;3.58;0.90;;;9.40;77.80;;;;;;5074500;28;20081;-37
2024/03/29 02:52:58;;;;;;;1.65;0.73;;;9.40;77.60;;;;;;5074832;28;20016;-33
2024/03/29 02:55:24;;;;;;;1.85;0.65;;;9.50;77.40;;;;;;5073637;28;20350;-35
2024/03/29 02:57:49;;;;;;;1.63;0.75;;;9.60;77.10;;;;;;5074436;28;20113;-38
2024/03/29 03:00:15;;;;;;;2.00;0.70;;;9.60;76.90;;;;;;5074744;28;20074;-31
2024/03/29 03:02:41;;;;;;;4.45;0.73;;;9.70;77.30;;;;;;5074275;28;20028;-36
2024/03/29 03:05:08;;;;;;;1.42;0.47;;;9.70;77.00;;;;;;5056688;28;20032;-35
2024/03/29 03:13:03;;;;;;;2.42;0.50;;;9.80;79.50;;;;;;5074209;28;20035;-48
2024/03/29 03:15:29;;;;;;;2.72;0.80;;;9.80;79.90;;;;;;5074439;28;20021;-44
2024/03/29 03:17:55;;;;;;;1.05;0.65;;;9.80;79.90;;;;;;5074233;28;20021;-44
2024/03/29 03:20:22;;;;;;;1.65;0.40;;;9.80;79.80;;;;;;5074008;28;20028;-42
2024/03/29 03:22:48;;;;;;;1.77;0.55;;;9.80;79.70;;;;;;5074347;28;20367;-42
2024/03/29 03:25:13;;;;;;;3.40;0.65;;;9.80;79.50;;;;;;5074277;28;20064;-35
2024/03/29 03:27:39;;;;;;;2.05;0.50;;;9.80;79.20;;;;;;5074134;28;20107;-33
2024/03/29 03:30:05;;;;;;;3.83;0.63;;;9.70;78.90;;;;;;5074167;28;20515;-35
2024/03/29 03:32:30;;;;;;;2.60;0.70;;;9.70;79.70;;;;;;5073813;28;20469;-35
2024/03/29 03:34:56;;;;;;;2.25;0.70;;;9.70;80.30;;;;;;5074186;28;20073;-36
2024/03/29 03:37:22;;;;;;;2.58;0.68;;;9.80;79.90;;;;;;5073830;28;20361;-35
2024/03/29 03:39:48;;;;;;;2.40;0.50;;;9.70;79.40;;;;;;5074240;28;20029;-34
2024/03/29 03:42:13;;;;;;;2.45;0.57;;;9.80;79.10;;;;;;5073673;28;20025;-35
2024/03/29 03:44:39;;;;;;;0.98;0.60;;;9.80;79.40;;;;;;5073864;28;20020;-34
2024/03/29 03:47:04;;;;;;;2.63;0.88;;;9.80;78.90;;;;;;5073743;28;20063;-35
2024/03/29 03:49:30;;;;;;;0.90;0.50;;;9.90;78.70;;;;;;5073459;28;20033;-35
2024/03/29 03:51:55;;;;;;;3.25;0.98;;;9.90;78.40;;;;;;5073562;28;20021;-35
2024/03/29 03:54:21;;;;;;;0.75;0.40;;;9.90;80.10;;;;;;5073458;28;20434;-35
2024/03/29 03:56:47;;;;;;;1.30;0.57;;;9.90;79.50;;;;;;5073114;28;20050;-34
2024/03/29 03:59:14;;;;;;;1.67;0.60;;;9.90;79.00;;;;;;5072437;28;20042;-35
2024/03/29 04:01:40;;;;;;;1.98;0.63;;;9.90;78.60;;;;;;5072973;28;20028;-35
2024/03/29 04:04:06;;;;;;;2.10;0.63;;;10.00;78.50;;;;;;5073642;28;20032;-36
2024/03/29 04:06:31;;;;;;;1.58;0.45;;;10.00;78.60;;;;;;5073670;28;20055;-35
2024/03/29 04:08:57;;;;;;;1.35;0.30;;;9.90;79.00;;;;;;5073598;28;20035;-35
2024/03/29 04:11:23;;;;;;;1.42;0.50;;;10.00;79.60;;;;;;5073100;28;20033;-36
2024/03/29 04:13:48;;;;;;;2.20;0.52;;;9.90;80.40;;;;;;5073634;28;20024;-36
2024/03/29 04:16:14;;;;;;;1.25;0.30;;;10.00;80.40;;;;;;5073582;28;20094;-36
2024/03/29 04:18:39;;;;;;;0.90;0.50;;;9.90;80.30;;;;;;5072887;28;20020;-34
2024/03/29 04:21:05;;;;;;;1.25;0.38;;;9.90;81.70;;;;;;5073270;28;20020;-36
2024/03/29 04:23:31;;;;;;;0.85;0.30;;;9.90;83.90;;;;;;5073130;28;20029;-35
2024/03/29 04:25:58;;;;;;;2.13;0.40;;;9.80;83.20;;;;;;5073335;28;20031;-35
2024/03/29 04:28:25;;;;;;;1.65;0.40;;;9.80;82.70;;;;;;5073220;28;20040;-36
2024/03/29 04:30:55;;;;;;;0.45;0.30;;;9.80;82.50;;;;;;5072643;28;20082;-35
2024/03/29 04:33:21;;;;;;;0.80;0.30;;;9.80;82.40;;;;;;5072874;28;20100;-36
2024/03/29 04:35:57;;;;;;;1.67;0.52;;;9.80;82.20;;;;;;5071340;28;20024;-35
2024/03/29 04:38:23;;;;;;;0.93;0.30;;;9.80;82.00;;;;;;5072506;28;20048;-35
2024/03/29 04:40:51;;;;;;;1.77;0.50;;;9.70;82.50;;;;;;5072720;28;20115;-35
2024/03/29 04:43:17;;;;;;;1.10;0.40;;;9.80;81.90;;;;;;5072526;28;20029;-34
2024/03/29 04:45:46;;;;;;;0.68;0.40;;;9.70;81.80;;;;;;5071234;28;20027;-36
2024/03/29 04:48:12;;;;;;;1.23;0.50;;;9.80;81.70;;;;;;5072709;28;20029;-35
2024/03/29 04:50:38;;;;;;;1.20;0.50;;;9.80;81.70;;;;;;5072452;28;20029;-35
2024/03/29 04:53:04;;;;;;;1.33;0.30;;;9.70;81.70;;;;;;5072834;28;20472;-36
2024/03/29 04:55:30;;;;;;;0.73;0.32;;;9.70;81.70;;;;;;5072538;28;20032;-35
2024/03/29 04:57:55;;;;;;;3.30;0.50;;;9.80;81.80;;;;;;5072318;28;20025;-35
2024/03/29 05:00:21;;;;;;;1.02;0.40;;;9.70;81.70;;;;;;5072068;28;20150;-35
2024/03/29 05:02:46;;;;;;;1.42;0.75;;;9.70;81.80;;;;;;5072076;28;20535;-32
2024/03/29 05:05:12;;;;;;;1.30;0.40;;;9.70;81.80;;;;;;5072441;28;20028;-34
2024/03/29 05:07:37;;;;;;;2.00;0.40;;;9.70;81.90;;;;;;5072117;28;20426;-33
2024/03/29 05:10:06;;;;;;;2.38;0.40;;;9.70;82.00;;;;;;5071845;28;20445;-34
2024/03/29 05:12:32;;;;;;;0.95;0.40;;;9.70;82.20;;;;;;5072312;28;20029;-33
2024/03/29 05:14:58;;;;;;;3.08;0.43;;;9.60;82.30;;;;;;5072047;28;20025;-33
2024/03/29 05:17:26;;;;;;;2.55;0.57;;;9.60;82.40;;;;;;5071940;28;20028;-32
2024/03/29 05:19:52;;;;;;;1.15;0.43;;;9.50;82.60;;;;;;5071899;28;20032;-34
2024/03/29 05:22:18;;;;;;;2.60;0.77;;;9.50;82.80;;;;;;5071874;28;20075;-33
2024/03/29 05:24:44;;;;;;;2.50;0.73;;;9.50;83.10;;;;;;5071858;28;20059;-32
2024/03/29 05:27:10;;;;;;;4.93;0.70;;;9.40;83.30;;;;;;5072099;28;20051;-32
2024/03/29 05:29:36;;;;;;;1.95;0.65;;;9.40;83.50;;;;;;5071972;28;20025;-33
2024/03/29 05:32:02;;;;;;;1.80;0.50;;;9.40;83.60;;;;;;5071828;28;20030;-33
2024/03/29 05:34:27;;;;;;;1.08;0.50;;;9.30;83.80;;;;;;5071746;28;20079;-33
2024/03/29 05:36:53;;;;;;;1.20;0.63;;;9.30;84.30;;;;;;5071675;28;20033;-34
2024/03/29 05:39:19;;;;;;;1.65;0.45;;;9.30;84.40;;;;;;5072022;28;20024;-34
2024/03/29 05:41:45;;;;;;;0.98;0.50;;;9.30;84.70;;;;;;5071819;28;20492;-33
2024/03/29 05:44:10;;;;;;;1.85;0.90;;;9.30;85.10;;;;;;5071815;28;20567;-33
2024/03/29 05:46:37;;;;;;;2.35;0.98;;;9.20;85.10;;;;;;5070303;28;20047;-33
2024/03/29 05:49:03;;;;;;;1.90;0.60;;;9.20;85.10;;;;;;5071530;28;20040;-34
2024/03/29 05:51:28;;;;;;;1.70;0.63;;;9.20;85.10;;;;;;5071323;28;20038;-32
2024/03/29 05:53:56;;;;;;;1.08;0.60;;;9.20;85.10;;;;;;5071638;28;20020;-32
2024/03/29 05:56:22;;;;;;;2.42;0.80;;;9.20;85.10;;;;;;5072093;28;20415;-33
2024/03/29 05:58:48;;;;;;;2.22;0.80;;;9.20;85.20;;;;;;5071790;28;20025;-34
2024/03/29 06:01:13;;;;;;;2.83;0.70;;;9.20;85.20;;;;;;5071179;28;20024;-33
2024/03/29 06:03:39;;;;;;;2.67;0.60;;;9.20;85.30;;;;;;5071716;28;20024;-33
2024/03/29 06:06:05;;;;;;;1.85;0.70;;;9.30;85.80;;;;;;5071341;28;20038;-34
2024/03/29 06:08:30;;;;;;;2.97;0.50;;;9.30;85.40;;;;;;5071616;28;20396;-33
2024/03/29 06:10:57;;;;;;;1.05;0.60;;;9.30;85.40;;;;;;5070964;28;20397;-32
2024/03/29 06:18:51;;;;;;;1.65;0.82;;;9.30;85.70;;;;;;5071459;28;20082;-33
2024/03/29 06:21:17;;;;;;;2.35;0.50;;;9.30;85.70;;;;;;5072690;28;20408;-34
2024/03/29 06:23:42;;;;;;;0.60;0.50;;;9.30;85.80;;;;;;5074113;28;20082;-34
2024/03/29 06:26:08;;;;;;;1.90;0.50;;;9.30;85.80;;;;;;5075262;28;20488;-34
2024/03/29 06:28:33;;;;;;;2.25;0.63;;;9.30;85.90;;;;;;5074203;28;20050;-34
2024/03/29 06:31:02;;;;;;;1.38;0.60;;;9.40;86.00;;;;;;5075310;28;20036;-34
2024/03/29 06:33:27;;;;;;;2.03;0.50;;;9.40;86.00;;;;;;5075347;28;20025;-33
2024/03/29 06:35:54;;;;;;;1.35;0.50;;;9.40;86.10;;;;;;5075503;28;20025;-35
2024/03/29 06:38:20;;;;;;;2.05;0.60;;;9.40;86.10;;;;;;5075227;28;20115;-32
2024/03/29 06:40:46;;;;;;;2.38;0.95;;;9.40;86.10;;;;;;5075238;28;20071;-33
2024/03/29 06:43:12;;;;;;;1.63;0.70;;;9.40;86.20;;;;;;5075055;28;20025;-33
2024/03/29 06:45:42;;;;;;;2.97;0.70;;;9.30;86.20;;;;;;5075070;28;20066;-33
2024/03/29 06:48:08;;;;;;;1.02;0.60;;;9.40;86.40;;;;;;5075357;28;20107;-33
2024/03/29 06:50:34;;;;;;;1.83;0.65;;;9.30;86.60;;;;;;5074772;28;20434;-35
2024/03/29 06:53:00;;;;;;;2.03;1.00;;;9.30;87.40;;;;;;5074894;28;20112;-33
2024/03/29 06:55:26;;;;;;;4.05;1.00;;;9.30;87.50;;;;;;5073767;28;20029;-33
2024/03/29 06:57:52;;;;;;;2.08;0.80;;;9.20;87.70;;;;;;5075242;28;20025;-35
2024/03/29 07:00:17;;;;;;;1.45;0.80;;;9.20;87.60;;;;;;5073427;28;20035;-33
2024/03/29 07:02:43;;;;;;;1.95;0.88;;;9.20;87.80;;;;;;5072948;28;20032;-34
2024/03/29 07:05:11;;;;;;;2.22;0.82;;;9.20;87.80;;;;;;5074948;28;20471;-33
2024/03/29 07:07:40;;;;;;;2.05;0.80;;;9.20;87.70;;;;;;5074484;28;20039;-33
2024/03/29 07:10:06;;;;;;;1.60;0.80;;;9.20;87.70;;;;;;5074853;28;20476;-33
2024/03/29 07:12:32;;;;;;;2.00;0.80;;;9.20;87.70;;;;;;5074444;28;20453;-33
2024/03/29 07:14:57;;;;;;;2.95;1.63;;;9.30;87.70;;;;;;5074416;28;20032;-32
2024/03/29 07:17:23;;;;;;;1.67;1.35;;;9.30;87.70;;;;;;5074077;28;20097;-43
2024/03/29 07:19:49;;;;;;;2.72;1.50;;;9.30;87.70;;;;;;5074187;28;20028;-33
2024/03/29 07:22:14;;;;;;;2.10;1.35;;;9.40;87.70;;;;;;5074519;28;20017;-34
2024/03/29 07:24:40;;;;;;;3.42;1.40;;;9.40;87.60;;;;;;5074413;28;20499;-33
2024/03/29 07:27:05;;;;;;;2.47;1.40;;;9.40;88.30;;;;;;5074232;28;20500;-33
2024/03/29 07:29:33;;;;;;;1.58;1.48;;;9.40;87.80;;;;;;5074783;28;20488;-32
2024/03/29 07:32:00;;;;;;;2.95;1.95;;;9.40;87.80;;;;;;5074335;28;20066;-33
2024/03/29 07:34:25;;;;;;;2.33;1.50;;;9.40;87.80;;;;;;5074950;28;20052;-33
2024/03/29 07:36:51;;;;;;;3.65;1.75;;;9.50;87.90;;;;;;5074425;28;20067;-32
2024/03/29 07:39:17;;;;;;;4.20;1.85;;;9.60;87.80;;;;;;5074370;28;20136;-34
2024/03/29 07:41:43;;;;;;;2.45;1.60;;;9.60;87.70;;;;;;5074409;28;20078;-34
2024/03/29 07:44:09;;;;;;;1.85;1.10;;;9.70;87.70;;;;;;5074666;28;20078;-33
2024/03/29 07:46:39;;;;;;;2.50;1.70;;;9.70;87.70;;;;;;5074477;28;20060;-34
2024/03/29 07:49:05;;;;;;;2.97;1.55;;;9.80;87.80;;;;;;5073096;28;20412;-34
2024/03/29 07:51:31;;;;;;;4.00;1.30;;;9.80;87.70;;;;;;5074548;28;20043;-33
2024/03/29 07:53:57;;;;;;;3.28;1.35;;;9.80;87.80;;;;;;5074543;28;20016;-32
2024/03/29 07:56:24;;;;;;;2.58;1.33;;;9.90;87.80;;;;;;5074654;28;20349;-33
2024/03/29 07:58:54;;;;;;;1.30;1.05;;;9.90;87.80;;;;;;5074474;28;20510;-33
2024/03/29 08:01:21;;;;;;;0.90;0.80;;;9.90;87.80;;;;;;5074036;28;20052;-32
2024/03/29 08:03:47;;;;;;;2.10;0.88;;;9.90;87.80;;;;;;5074192;28;20032;-33
2024/03/29 08:06:12;;;;;;;2.95;1.00;;;9.90;87.80;;;;;;5074374;28;20392;-33
2024/03/29 08:08:38;;;;;;;1.15;0.85;;;9.80;87.80;;;;;;5073989;28;20036;-32
2024/03/29 08:11:04;;;;;;;1.75;0.80;;;9.90;87.90;;;;;;5073800;28;20149;-33
2024/03/29 08:13:29;;;;;;;1.27;0.88;;;9.80;87.90;;;;;;5074082;28;20055;-32
2024/03/29 08:16:00;;;;;;;1.55;0.95;;;9.80;87.90;;;;;;5073941;28;20024;-33
2024/03/29 08:18:26;;;;;;;1.23;0.90;;;9.90;88.00;;;;;;5073912;28;20096;-33
2024/03/29 08:20:52;;;;;;;1.92;1.02;;;9.90;87.90;;;;;;5074120;28;20107;-34
2024/03/29 08:23:17;;;;;;;1.27;0.90;;;9.90;87.90;;;;;;5073876;28;20051;-33
2024/03/29 08:25:44;;;;;;;2.30;1.00;;;9.80;87.90;;;;;;5073648;28;20033;-34
2024/03/29 08:28:10;;;;;;;1.38;0.73;;;9.90;88.00;;;;;;5073927;28;20146;-33
2024/03/29 08:30:36;;;;;;;1.38;0.90;;;9.90;88.00;;;;;;5073408;28;20518;-33
2024/03/29 08:33:03;;;;;;;1.80;0.80;;;9.90;88.10;;;;;;5073463;28;20024;-33
2024/03/29 08:35:29;;;;;;;1.10;0.90;;;9.90;88.10;;;;;;5073466;28;20115;-32
2024/03/29 08:37:55;;;;;;;2.40;1.10;;;10.00;88.00;;;;;;5071829;28;20055;-34
2024/03/29 08:40:21;;;;;;;2.10;0.90;;;10.00;88.00;;;;;;5073294;28;20020;-32
2024/03/29 08:42:47;;;;;;;0.75;0.70;;;10.10;88.00;;;;;;5073096;28;20035;-32
2024/03/29 08:45:13;;;;;;;4.13;1.00;;;10.10;87.90;;;;;;5072993;28;20481;-33
2024/03/29 08:47:39;;;;;;;1.75;1.10;;;10.20;87.90;;;;;;5073151;28;20064;-33
2024/03/29 08:50:05;;;;;;;2.25;1.00;;;10.20;87.80;;;;;;5073117;28;20067;-32
2024/03/29 08:52:31;;;;;;;3.20;1.20;;;10.30;87.70;;;;;;5073297;28;20396;-32
2024/03/29 08:54:56;;;;;;;1.35;0.90;;;10.30;87.60;;;;;;5073026;28;20392;-33
2024/03/29 08:57:22;;;;;;;2.53;1.02;;;10.40;87.60;;;;;;5072982;28;20029;-32
2024/03/29 08:59:47;;;;;;;2.50;1.00;;;10.50;87.60;;;;;;5073208;28;20136;-32
2024/03/29 09:02:13;;;;;;;1.95;1.30;;;10.60;87.50;;;;;;5072862;28;20017;-34
2024/03/29 09:04:39;;;;;;;2.55;1.10;;;10.60;87.40;;;;;;5073090;28;20131;-33
2024/03/29 09:07:05;;;;;;;1.95;1.20;;;10.70;87.40;;;;;;5072926;28;20028;-34
2024/03/29 09:09:32;;;;;;;3.10;1.02;;;10.70;87.20;;;;;;5073172;28;20025;-34
2024/03/29 09:11:58;;;;;;;2.17;1.08;;;10.80;87.10;;;;;;5071359;28;20417;-32
2024/03/29 09:14:24;;;;;;;1.52;0.98;;;10.80;87.10;;;;;;5072947;28;20040;-33
2024/03/29 09:16:50;;;;;;;4.60;1.20;;;10.80;87.10;;;;;;5073126;28;20028;-32
2024/03/29 09:19:16;;;;;;;2.13;1.00;;;10.80;87.00;;;;;;5072941;28;20043;-33
2024/03/29 09:21:41;;;;;;;2.35;0.90;;;10.90;87.10;;;;;;5072372;28;20029;-33
2024/03/29 09:24:07;;;;;;;2.42;0.98;;;11.00;86.90;;;;;;5072575;28;20024;-34
2024/03/29 09:26:33;;;;;;;3.95;1.63;;;11.10;86.90;;;;;;5072834;28;20393;-33
2024/03/29 09:28:59;;;;;;;4.63;2.40;;;11.10;86.80;;;;;;5072831;28;20496;-33
2024/03/29 09:31:25;;;;;;;2.35;1.60;;;11.20;86.70;;;;;;5072713;28;20473;-34
2024/03/29 09:33:53;;;;;;;2.78;1.48;;;11.20;86.50;;;;;;5072350;28;20021;-33
2024/03/29 09:36:23;;;;;;;2.72;1.17;;;11.20;86.50;;;;;;5072872;28;20036;-33
2024/03/29 09:38:50;;;;;;;3.22;1.10;;;11.30;86.50;;;;;;5070864;28;20044;-33
2024/03/29 09:41:18;;;;;;;1.70;0.80;;;11.40;86.50;;;;;;5072410;28;20035;-33
2024/03/29 09:43:45;;;;;;;1.90;0.80;;;11.40;86.30;;;;;;5072442;28;20028;-34
2024/03/29 09:46:12;;;;;;;1.23;0.80;;;11.60;86.20;;;;;;5072534;28;20036;-32
2024/03/29 09:48:40;;;;;;;1.55;0.80;;;11.70;85.90;;;;;;5072524;28;20082;-34
2024/03/29 09:51:07;;;;;;;1.00;0.80;;;11.80;86.30;;;;;;5072229;28;20441;-40
2024/03/29 09:53:37;;;;;;;1.52;1.00;;;11.90;85.60;;;;;;5072093;28;20054;-32
2024/03/29 09:56:06;;;;;;;1.55;0.88;;;12.00;85.50;;;;;;5071623;28;20035;-33
2024/03/29 09:58:33;;;;;;;1.50;0.90;;;12.10;85.30;;;;;;5072403;28;20430;-32
2024/03/29 10:00:59;;;;;;;2.03;0.90;;;12.20;85.10;;;;;;5072082;28;20013;-34
2024/03/29 10:03:29;;;;;;;2.08;1.10;;;12.30;84.90;;;;;;5072024;28;20035;-34
2024/03/29 10:05:59;;;;;;;1.77;1.00;;;12.40;84.70;;;;;;5072316;28;20469;-34
2024/03/29 10:08:30;;;;;;;2.30;1.20;;;12.50;84.30;;;;;;5072233;28;20016;-33
2024/03/29 10:10:59;;;;;;;3.67;1.00;;;12.50;84.20;;;;;;5071935;28;20388;-34
2024/03/29 10:13:24;;;;;;;0.80;0.80;;;12.60;84.10;;;;;;5072100;28;20020;-34
2024/03/29 10:15:55;;;;;;;1.88;1.08;;;12.60;83.70;;;;;;5070799;28;20442;-34
2024/03/29 10:18:27;;;;;;;1.58;1.15;;;12.60;83.60;;;;;;5070710;28;20462;-31
2024/03/29 10:21:09;;;;;;;2.05;1.20;;;12.70;83.50;;;;;;5071946;28;20035;-33
2024/03/29 10:23:35;;;;;;;2.95;0.93;;;12.70;83.40;;;;;;5072240;28;20094;-34
2024/03/29 10:26:02;;;;;;;0.82;0.75;;;12.80;83.30;;;;;;5072070;28;20025;-33
2024/03/29 10:28:35;;;;;;;2.10;1.10;;;12.80;83.10;;;;;;5072055;28;20330;-34
2024/03/29 10:31:03;;;;;;;1.05;0.93;;;12.80;83.00;;;;;;5072053;28;20028;-33
2024/03/29 10:33:32;;;;;;;1.10;1.00;;;12.90;82.90;;;;;;5072227;28;20055;-33
2024/03/29 10:36:07;;;;;;;2.33;1.10;;;12.80;82.80;;;;;;5071747;28;20023;-32
2024/03/29 10:38:34;;;;;;;2.80;1.00;;;12.80;82.70;;;;;;5071807;28;20056;-33
2024/03/29 10:41:00;;;;;;;1.58;1.15;;;12.80;82.70;;;;;;5071623;28;20111;-33
2024/03/29 10:43:27;;;;;;;2.30;1.20;;;12.80;82.70;;;;;;5071998;28;20029;-33
2024/03/29 10:45:58;;;;;;;2.47;1.20;;;12.80;82.60;;;;;;5071855;28;20052;-34
2024/03/29 10:48:28;;;;;;;2.20;1.20;;;12.80;82.40;;;;;;5072047;28;20548;-33
2024/03/29 10:50:55;;;;;;;3.67;1.50;;;12.90;82.30;;;;;;5071626;28;20047;-34
2024/03/29 10:53:26;;;;;;;1.38;0.98;;;13.00;82.00;;;;;;5071732;28;20050;-33
2024/03/29 10:55:56;;;;;;;1.90;1.17;;;13.00;81.50;;;;;;5071718;28;20016;-32
2024/03/29 10:58:24;;;;;;;1.60;1.10;;;13.00;81.50;;;;;;5071645;28;20024;-33
2024/03/29 11:00:56;;;;;;;1.65;1.15;;;13.10;81.60;;;;;;5071573;28;20027;-32
2024/03/29 11:04:04;;;;;;;1.95;1.23;;;13.10;81.50;;;;;;5071424;28;20025;-33
2024/03/29 11:06:32;;;;;;;1.88;1.23;;;13.20;81.10;;;;;;4970679;28;20034;-34
2024/03/29 11:09:00;;;;;;;0.93;0.80;;;13.30;81.20;;;;;;4974320;28;20034;-33
2024/03/29 11:11:30;;;;;;;2.65;1.23;;;13.40;81.10;;;;;;5026944;28;20044;-34
2024/03/29 11:14:07;;;;;;;2.50;1.30;;;13.50;80.80;;;;;;5075386;28;20039;-34
2024/03/29 11:16:33;;;;;;;2.25;1.13;;;13.50;80.60;;;;;;5075057;28;20111;-33
2024/03/29 11:19:01;;;;;;;1.85;1.20;;;13.60;80.60;;;;;;5074951;28;20021;-33
2024/03/29 11:21:28;;;;;;;1.80;1.33;;;13.60;80.10;;;;;;5073684;28;20024;-35
2024/03/29 11:23:57;;;;;;;2.28;1.13;;;13.70;80.40;;;;;;5075169;28;20021;-34
2024/03/29 11:26:25;;;;;;;1.45;0.90;;;13.80;79.60;;;;;;5075357;28;20079;-33
2024/03/29 11:28:52;;;;;;;1.50;1.00;;;13.80;79.20;;;;;;5075060;28;20013;-34
2024/03/29 11:31:22;;;;;;;3.72;1.08;;;13.90;79.20;;;;;;5073478;28;20025;-33
2024/03/29 11:33:48;;;;;;;1.60;1.15;;;13.90;78.90;;;;;;5074992;28;20021;-35
2024/03/29 11:36:23;;;;;;;2.22;1.40;;;14.00;78.40;;;;;;5074665;28;20025;-33
2024/03/29 11:38:53;;;;;;;1.95;0.90;;;14.00;77.90;;;;;;5074542;28;20734;-35
2024/03/29 11:41:24;;;;;;;3.45;1.10;;;14.00;77.90;;;;;;5074833;28;20021;-33
2024/03/29 11:43:51;;;;;;;2.70;1.00;;;14.20;77.80;;;;;;5075061;28;20035;-34
2024/03/29 11:46:17;;;;;;;2.03;1.00;;;14.20;77.50;;;;;;5075265;28;20528;-35
2024/03/29 11:48:49;;;;;;;1.52;1.00;;;14.30;77.20;;;;;;5074830;28;20441;-34
2024/03/29 11:51:16;;;;;;;1.75;1.10;;;14.30;76.90;;;;;;5074883;28;20353;-35
2024/03/29 11:53:43;;;;;;;1.25;0.95;;;14.40;77.00;;;;;;5074695;28;20017;-34
2024/03/29 11:56:11;;;;;;;2.83;0.90;;;14.50;76.30;;;;;;5074628;28;20070;-34
2024/03/29 11:58:37;;;;;;;1.70;0.73;;;14.60;76.00;;;;;;5074873;28;20074;-35
2024/03/29 12:01:03;;;;;;;1.60;1.10;;;14.60;75.60;;;;;;5074807;28;20449;-33
2024/03/29 12:03:30;;;;;;;2.90;1.20;;;14.70;75.50;;;;;;5074602;28;20024;-34
2024/03/29 12:06:03;;;;;;;2.08;1.00;;;14.70;75.50;;;;;;5074114;28;20029;-35
2024/03/29 12:08:31;;;;;;;3.45;0.90;;;14.80;74.60;;;;;;5074471;28;20496;-34
2024/03/29 12:10:57;;;;;;;1.25;0.93;;;14.80;74.40;;;;;;5072514;28;20027;-34
2024/03/29 12:13:23;;;;;;;1.42;0.90;;;14.80;74.50;;;;;;5074424;28;20481;-34
2024/03/29 12:15:49;;;;;;;2.65;0.90;;;14.90;74.40;;;;;;5074410;28;20028;-34
2024/03/29 12:18:16;;;;;;;2.03;0.88;;;15.00;73.90;;;;;;5073357;28;20099;-34
2024/03/29 12:20:42;;;;;;;3.45;0.80;;;15.00;73.90;;;;;;5073757;28;20025;-34
2024/03/29 12:23:09;;;;;;;1.60;0.80;;;15.00;74.00;;;;;;5073990;28;20035;-35
2024/03/29 12:25:36;;;;;;;2.05;0.80;;;15.10;73.90;;;;;;5074160;28;20461;-36
2024/03/29 12:28:02;;;;;;;1.58;0.85;;;15.30;73.80;;;;;;5073788;28;20424;-36
2024/03/29 12:30:28;;;;;;;0.70;0.68;;;15.40;72.90;;;;;;5072336;28;20038;-34
2024/03/29 12:33:20;;;;;;;0.75;0.70;;;15.50;72.80;;;;;;5073586;28;20436;-35
2024/03/29 12:35:51;;;;;;;1.67;0.75;;;15.60;72.00;;;;;;5069676;28;20115;-36
2024/03/29 12:38:17;;;;;;;3.33;0.90;;;15.70;71.60;;;;;;5073539;28;20044;-36
2024/03/29 12:40:47;;;;;;;1.05;0.70;;;15.70;71.30;;;;;;5073442;28;20058;-35
2024/03/29 12:43:13;;;;;;;1.63;0.98;;;15.80;71.30;;;;;;5073445;28;20103;-34
2024/03/29 12:45:40;;;;;;;1.85;0.70;;;15.80;70.50;;;;;;5072103;28;20020;-34
2024/03/29 12:48:13;;;;;;;1.88;0.95;;;15.90;71.00;;;;;;5073574;28;20042;-35
2024/03/29 12:50:44;;;;;;;1.50;0.98;;;15.90;71.70;;;;;;5073538;28;20489;-35
2024/03/29 12:53:11;;;;;;;1.45;0.80;;;15.90;71.20;;;;;;5073400;28;20099;-34
2024/03/29 12:55:45;;;;;;;0.60;0.60;;;16.00;70.60;;;;;;5073552;28;20047;-35
2024/03/29 12:58:16;;;;;;;1.00;0.63;;;15.90;70.30;;;;;;5073567;28;20047;-34
2024/03/29 13:00:42;;;;;;;2.78;0.70;;;15.90;70.00;;;;;;5073299;28;20419;-34